createdAt,value
2018-07-22T00:00:09.758Z,8.73
2018-07-22T00:02:39.279Z,8.13
2018-07-22T00:05:08.889Z,8.70
2018-07-22T00:07:38.413Z,8.63
2018-07-22T00:10:17.845Z,9.30
2018-07-22T00:12:47.015Z,8.30
2018-07-22T00:15:16.171Z,9.53
2018-07-22T00:17:45.324Z,9.33
2018-07-22T00:20:15.228Z,8.00
2018-07-22T00:22:44.530Z,9.20
2018-07-22T00:25:13.660Z,9.30
2018-07-22T00:27:42.848Z,10.27
2018-07-22T00:30:11.998Z,9.87
2018-07-22T00:32:42.250Z,9.30
2018-07-22T00:35:12.466Z,8.70
2018-07-22T00:37:42.213Z,9.53
2018-07-22T00:40:12.306Z,9.80
2018-07-22T00:42:41.539Z,8.90
2018-07-22T00:45:13.258Z,9.87
2018-07-22T00:47:43.190Z,9.50
2018-07-22T00:50:12.348Z,10.17
2018-07-22T00:52:41.551Z,11.03
2018-07-22T00:55:10.729Z,10.40
2018-07-22T00:57:39.862Z,10.47
2018-07-22T01:00:09.399Z,10.53
2018-07-22T01:02:38.602Z,9.13
2018-07-22T01:05:08.079Z,11.10
2018-07-22T01:07:37.378Z,9.97
2018-07-22T01:10:06.981Z,9.90
2018-07-22T01:12:36.195Z,9.80
2018-07-22T01:15:06.071Z,10.83
2018-07-22T01:17:35.235Z,9.70
2018-07-22T01:20:04.915Z,9.20
2018-07-22T01:22:34.111Z,8.60
2018-07-22T01:25:03.312Z,9.90
2018-07-22T01:27:32.512Z,9.30
2018-07-22T01:30:01.689Z,10.47
2018-07-22T01:32:30.908Z,10.07
2018-07-22T01:35:00.067Z,10.00
2018-07-22T01:37:29.262Z,9.30
2018-07-22T01:39:58.387Z,9.23
2018-07-22T01:42:27.688Z,9.60
2018-07-22T01:44:56.817Z,9.23
2018-07-22T01:47:25.982Z,10.00
2018-07-22T01:49:55.972Z,9.63
2018-07-22T01:52:25.113Z,10.30
2018-07-22T01:54:54.837Z,9.70
2018-07-22T01:57:24.022Z,9.23
2018-07-22T01:59:53.222Z,10.00
2018-07-22T02:02:22.346Z,10.30
2018-07-22T02:04:51.529Z,9.97
2018-07-22T02:07:20.708Z,9.70
2018-07-22T02:09:49.882Z,9.17
2018-07-22T02:12:19.023Z,9.37
2018-07-22T02:14:48.138Z,9.43
2018-07-22T02:17:17.242Z,9.73
2018-07-22T02:19:46.416Z,10.13
2018-07-22T02:22:15.674Z,9.53
2018-07-22T02:24:45.582Z,10.53
2018-07-22T02:27:15.610Z,10.40
2018-07-22T02:29:44.750Z,10.70
2018-07-22T02:32:13.919Z,10.50
2018-07-22T02:34:43.020Z,10.70
2018-07-22T02:37:12.199Z,11.07
2018-07-22T02:39:41.298Z,10.13
2018-07-22T02:42:10.962Z,10.70
2018-07-22T02:44:40.127Z,10.33
2018-07-22T02:47:09.255Z,10.40
2018-07-22T02:49:38.356Z,9.00
2018-07-22T02:52:07.803Z,9.50
2018-07-22T02:54:36.925Z,9.97
2018-07-22T02:57:07.014Z,9.77
2018-07-22T02:59:36.108Z,9.33
2018-07-22T03:02:05.240Z,9.93
2018-07-22T03:04:34.403Z,10.50
2018-07-22T03:07:03.525Z,10.13
2018-07-22T03:09:32.688Z,9.43
2018-07-22T03:12:01.835Z,9.67
2018-07-22T03:14:30.986Z,10.07
2018-07-22T03:17:00.200Z,10.60
2018-07-22T03:19:29.373Z,9.33
2018-07-22T03:21:58.490Z,9.57
2018-07-22T03:24:27.678Z,9.13
2018-07-22T03:26:56.953Z,9.23
2018-07-22T03:29:26.150Z,10.37
2018-07-22T03:31:55.301Z,9.63
2018-07-22T03:34:24.493Z,10.20
2018-07-22T03:36:53.779Z,9.50
2018-07-22T03:39:23.054Z,11.60
2018-07-22T03:41:52.289Z,10.43
2018-07-22T03:44:21.802Z,11.07
2018-07-22T03:46:50.977Z,11.30
2018-07-22T03:49:20.154Z,10.23
2018-07-22T03:51:49.258Z,9.80
2018-07-22T03:54:18.437Z,9.70
2018-07-22T03:56:47.671Z,10.57
2018-07-22T03:59:16.911Z,10.50
2018-07-22T04:01:46.049Z,9.80
2018-07-22T04:04:15.213Z,10.80
2018-07-22T04:06:44.383Z,9.63
2018-07-22T04:09:13.570Z,10.03
2018-07-22T04:11:42.742Z,10.40
2018-07-22T04:14:11.980Z,11.33
2018-07-22T04:16:41.181Z,9.93
2018-07-22T04:19:10.322Z,10.80
2018-07-22T04:21:39.471Z,9.50
2018-07-22T04:24:08.632Z,10.33
2018-07-22T04:26:37.869Z,10.67
2018-07-22T04:29:07.150Z,9.30
2018-07-22T04:31:36.353Z,10.43
2018-07-22T04:34:05.587Z,9.60
2018-07-22T04:36:34.733Z,11.50
2018-07-22T04:39:06.491Z,10.37
2018-07-22T04:41:35.656Z,9.73
2018-07-22T04:44:04.798Z,9.93
2018-07-22T04:46:33.941Z,9.57
2018-07-22T04:49:03.170Z,10.30
2018-07-22T04:51:33.200Z,9.77
2018-07-22T04:54:02.452Z,12.20
2018-07-22T04:56:31.618Z,9.63
2018-07-22T04:59:00.791Z,10.50
2018-07-22T05:01:29.927Z,11.00
2018-07-22T05:03:59.070Z,9.83
2018-07-22T05:06:29.222Z,9.50
2018-07-22T05:08:58.413Z,9.67
2018-07-22T05:11:28.343Z,9.37
2018-07-22T05:13:57.526Z,10.37
2018-07-22T05:16:27.339Z,10.07
2018-07-22T05:18:56.517Z,11.30
2018-07-22T05:21:25.770Z,10.50
2018-07-22T05:23:54.914Z,11.30
2018-07-22T05:26:24.059Z,13.27
2018-07-22T05:28:53.311Z,11.13
2018-07-22T05:31:22.510Z,11.53
2018-07-22T05:33:51.657Z,16.67
2018-07-22T05:36:20.815Z,12.70
2018-07-22T05:38:50.034Z,12.80
2018-07-22T05:41:19.192Z,11.67
2018-07-22T05:43:48.334Z,11.67
2018-07-22T05:46:17.853Z,10.57
2018-07-22T05:48:47.066Z,11.70
2018-07-22T05:51:16.217Z,11.40
2018-07-22T05:53:45.365Z,10.93
2018-07-22T05:56:14.514Z,12.30
2018-07-22T05:58:43.714Z,12.30
2018-07-22T06:01:12.874Z,11.00
2018-07-22T06:03:42.724Z,10.97
2018-07-22T06:06:11.875Z,11.40
2018-07-22T06:08:41.005Z,10.83
2018-07-22T06:11:10.184Z,9.40
2018-07-22T06:13:39.325Z,10.00
2018-07-22T06:16:08.565Z,12.30
2018-07-22T06:18:37.705Z,10.90
2018-07-22T06:21:07.132Z,9.60
2018-07-22T06:23:36.291Z,10.70
2018-07-22T06:26:06.008Z,9.90
2018-07-22T06:28:35.177Z,9.60
2018-07-22T06:31:04.345Z,11.60
2018-07-22T06:33:33.494Z,10.63
2018-07-22T06:36:02.684Z,10.53
2018-07-22T06:38:32.869Z,9.93
2018-07-22T06:41:02.054Z,10.30
2018-07-22T06:43:31.209Z,9.97
2018-07-22T06:46:00.341Z,8.80
2018-07-22T06:48:29.555Z,8.63
2018-07-22T06:50:58.701Z,8.17
2018-07-22T06:53:27.897Z,10.70
2018-07-22T06:55:57.022Z,8.27
2018-07-22T06:58:26.169Z,7.83
2018-07-22T07:00:55.317Z,8.70
2018-07-22T07:03:24.506Z,8.33
2018-07-22T07:05:53.658Z,8.17
2018-07-22T07:08:22.770Z,8.97
2018-07-22T07:10:51.951Z,10.10
2018-07-22T07:13:21.047Z,8.20
2018-07-22T07:15:50.150Z,7.43
2018-07-22T07:18:19.268Z,6.67
2018-07-22T07:20:48.462Z,7.33
2018-07-22T07:23:17.570Z,7.57
2018-07-22T07:25:46.873Z,7.10
2018-07-22T07:28:16.031Z,6.70
2018-07-22T07:30:45.190Z,6.97
2018-07-22T07:33:14.345Z,7.43
2018-07-22T07:35:43.527Z,7.47
2018-07-22T07:38:12.704Z,7.20
2018-07-22T07:40:41.840Z,7.10
2018-07-22T07:43:11.061Z,6.33
2018-07-22T07:45:40.775Z,6.50
2018-07-22T07:48:09.978Z,6.20
2018-07-22T07:50:39.479Z,5.10
2018-07-22T07:53:08.826Z,5.57
2018-07-22T07:55:37.833Z,5.00
2018-07-22T07:58:06.999Z,5.93
2018-07-22T08:00:36.475Z,5.30
2018-07-22T08:03:05.693Z,4.27
2018-07-22T08:05:34.834Z,4.70
2018-07-22T08:08:04.023Z,4.33
2018-07-22T08:10:33.193Z,5.07
2018-07-22T08:13:02.432Z,4.70
2018-07-22T08:15:31.597Z,4.20
2018-07-22T08:18:00.738Z,5.83
2018-07-22T08:20:29.944Z,4.40
2018-07-22T08:22:59.129Z,4.10
2018-07-22T08:25:28.293Z,4.53
2018-07-22T08:27:57.498Z,5.07
2018-07-22T08:30:26.800Z,4.30
2018-07-22T08:32:56.024Z,4.63
2018-07-22T08:35:25.190Z,5.33
2018-07-22T08:37:54.390Z,4.80
2018-07-22T08:40:23.614Z,4.60
2018-07-22T08:42:52.819Z,4.57
2018-07-22T08:45:23.114Z,6.10
2018-07-22T08:47:52.417Z,4.10
2018-07-22T08:50:21.558Z,4.50
2018-07-22T08:52:50.825Z,3.93
2018-07-22T08:55:20.063Z,3.97
2018-07-22T08:57:49.311Z,3.97
2018-07-22T09:00:18.544Z,3.80
2018-07-22T09:02:47.792Z,3.60
2018-07-22T09:05:17.009Z,4.00
2018-07-22T09:07:46.226Z,3.70
2018-07-22T09:10:15.536Z,3.73
2018-07-22T09:12:44.770Z,4.00
2018-07-22T09:15:15.366Z,3.90
2018-07-22T09:17:44.603Z,4.10
2018-07-22T09:20:13.742Z,4.00
2018-07-22T09:22:43.032Z,4.20
2018-07-22T09:25:12.233Z,4.40
2018-07-22T09:27:41.449Z,4.67
2018-07-22T09:30:10.605Z,4.50
2018-07-22T09:32:40.029Z,4.43
2018-07-22T09:35:09.190Z,6.67
2018-07-22T09:37:38.348Z,4.50
2018-07-22T09:40:07.559Z,4.80
2018-07-22T09:42:36.703Z,5.00
2018-07-22T09:45:06.018Z,4.13
2018-07-22T09:47:35.218Z,5.23
2018-07-22T09:50:04.382Z,5.33
2018-07-22T09:52:33.534Z,4.97
2018-07-22T09:55:02.700Z,5.20
2018-07-22T09:57:34.635Z,7.40
2018-07-22T10:00:03.827Z,5.40
2018-07-22T10:02:33.006Z,5.80
2018-07-22T10:05:02.146Z,6.20
2018-07-22T10:07:31.288Z,6.47
2018-07-22T10:10:00.490Z,5.20
2018-07-22T10:12:29.660Z,5.77
2018-07-22T10:14:58.819Z,5.20
2018-07-22T10:17:28.022Z,5.63
2018-07-22T10:19:57.146Z,5.00
2018-07-22T10:22:26.287Z,6.00
2018-07-22T10:24:55.398Z,5.43
2018-07-22T10:27:24.646Z,4.90
2018-07-22T10:29:53.826Z,5.17
2018-07-22T10:32:23.131Z,5.13
2018-07-22T10:34:52.397Z,5.30
2018-07-22T10:37:21.662Z,5.27
2018-07-22T10:39:50.841Z,5.40
2018-07-22T10:42:19.986Z,6.20
2018-07-22T10:44:49.185Z,5.43
2018-07-22T10:47:18.385Z,5.93
2018-07-22T10:49:47.583Z,6.20
2018-07-22T10:52:16.941Z,5.67
2018-07-22T10:54:46.081Z,5.67
2018-07-22T10:57:16.920Z,6.00
2018-07-22T10:59:46.760Z,6.47
2018-07-22T11:02:15.757Z,6.37
2018-07-22T11:04:45.030Z,7.40
2018-07-22T11:07:14.344Z,6.40
2018-07-22T11:09:44.435Z,7.13
2018-07-22T11:12:13.673Z,6.40
2018-07-22T11:14:42.933Z,6.30
2018-07-22T11:17:12.347Z,6.03
2018-07-22T11:19:41.507Z,5.87
2018-07-22T11:22:10.722Z,5.60
2018-07-22T11:24:39.930Z,6.00
2018-07-22T11:27:20.771Z,5.97
2018-07-22T11:29:49.940Z,6.37
2018-07-22T11:32:19.203Z,5.47
2018-07-22T11:34:48.417Z,6.13
2018-07-22T11:37:18.387Z,6.23
2018-07-22T11:39:47.547Z,6.50
2018-07-22T11:42:16.796Z,7.97
2018-07-22T11:44:45.985Z,6.70
2018-07-22T11:47:15.118Z,6.10
2018-07-22T11:49:44.268Z,7.03
2018-07-22T11:52:13.464Z,6.73
2018-07-22T11:54:42.591Z,5.63
2018-07-22T11:57:11.768Z,7.40
2018-07-22T11:59:40.889Z,6.83
2018-07-22T12:02:10.062Z,7.30
2018-07-22T12:04:39.230Z,6.43
2018-07-22T12:07:08.362Z,5.90
2018-07-22T12:09:37.560Z,5.73
2018-07-22T12:12:07.496Z,6.20
2018-07-22T12:14:36.674Z,6.47
2018-07-22T12:17:06.880Z,6.70
2018-07-22T12:19:36.062Z,6.20
2018-07-22T12:22:05.234Z,6.50
2018-07-22T12:24:34.391Z,7.67
2018-07-22T12:27:03.545Z,7.00
2018-07-22T12:29:32.744Z,6.90
2018-07-22T12:32:01.917Z,7.37
2018-07-22T12:34:31.210Z,6.40
2018-07-22T12:37:00.569Z,7.00
2018-07-22T12:39:29.753Z,7.37
2018-07-22T12:41:58.863Z,7.50
2018-07-22T12:44:28.085Z,6.57
2018-07-22T12:46:57.313Z,6.70
2018-07-22T12:49:26.536Z,7.20
2018-07-22T12:51:55.652Z,7.07
2018-07-22T12:54:25.715Z,7.03
2018-07-22T12:56:54.882Z,7.43
2018-07-22T12:59:24.022Z,7.33
2018-07-22T13:01:53.190Z,7.10
2018-07-22T13:04:22.387Z,6.30
2018-07-22T13:06:51.782Z,6.70
2018-07-22T13:09:20.946Z,6.30
2018-07-22T13:11:50.128Z,6.37
2018-07-22T13:14:19.476Z,6.50
2018-07-22T13:16:49.341Z,7.03
2018-07-22T13:19:18.539Z,7.50
2018-07-22T13:21:48.698Z,7.53
2018-07-22T13:24:17.877Z,7.10
2018-07-22T13:26:49.214Z,6.50
2018-07-22T13:29:18.521Z,7.80
2018-07-22T13:31:48.319Z,7.10
2018-07-22T13:34:17.471Z,7.43
2018-07-22T13:36:46.652Z,7.67
2018-07-22T13:39:15.854Z,7.27
2018-07-22T13:41:44.984Z,7.67
2018-07-22T13:44:14.133Z,7.80
2018-07-22T13:46:43.345Z,6.93
2018-07-22T13:49:12.847Z,6.87
2018-07-22T13:51:41.966Z,6.97
2018-07-22T13:54:11.139Z,7.07
2018-07-22T13:56:40.324Z,7.70
2018-07-22T13:59:09.538Z,7.73
2018-07-22T14:01:38.715Z,8.60
2018-07-22T14:04:08.064Z,8.37
2018-07-22T14:06:37.332Z,7.53
2018-07-22T14:09:09.407Z,8.13
2018-07-22T14:11:38.578Z,9.20
2018-07-22T14:14:08.293Z,8.30
2018-07-22T14:16:37.711Z,8.97
2018-07-22T14:19:07.073Z,10.77
2018-07-22T14:21:36.279Z,7.93
2018-07-22T14:24:05.383Z,8.47
2018-07-22T14:26:35.059Z,8.27
2018-07-22T14:29:04.638Z,8.10
2018-07-22T14:31:33.810Z,7.67
2018-07-22T14:34:02.950Z,7.73
2018-07-22T14:36:32.216Z,8.33
2018-07-22T14:39:01.581Z,7.43
2018-07-22T14:41:30.772Z,7.87
2018-07-22T14:43:59.912Z,8.00
2018-07-22T14:46:29.099Z,8.93
2018-07-22T14:48:58.269Z,8.37
2018-07-22T14:51:27.245Z,8.70
2018-07-22T14:53:56.414Z,10.83
2018-07-22T14:56:25.619Z,8.30
2018-07-22T14:58:54.799Z,8.60
2018-07-22T15:01:23.964Z,9.40
2018-07-22T15:03:54.029Z,13.77
2018-07-22T15:06:23.229Z,9.23
2018-07-22T15:08:52.414Z,7.67
2018-07-22T15:11:21.948Z,7.20
2018-07-22T15:13:51.128Z,7.20
2018-07-22T15:16:20.319Z,8.53
2018-07-22T15:18:49.417Z,7.17
2018-07-22T15:21:18.554Z,7.70
2018-07-22T15:23:47.819Z,8.13
2018-07-22T15:26:16.984Z,7.83
2018-07-22T15:28:46.144Z,7.43
2018-07-22T15:31:15.287Z,7.43
2018-07-22T15:33:44.989Z,8.10
2018-07-22T15:36:14.215Z,7.50
2018-07-22T15:38:43.366Z,7.53
2018-07-22T15:41:12.619Z,8.57
2018-07-22T15:43:42.348Z,9.43
2018-07-22T15:46:12.987Z,7.87
2018-07-22T15:48:42.097Z,7.40
2018-07-22T15:51:11.248Z,8.10
2018-07-22T15:53:41.389Z,7.87
2018-07-22T15:56:10.523Z,32.10
2018-07-22T15:58:41.397Z,9.03
2018-07-22T16:01:11.319Z,8.20
2018-07-22T16:03:42.293Z,7.77
2018-07-22T16:06:12.131Z,8.10
2018-07-22T16:08:41.770Z,9.70
2018-07-22T16:11:12.135Z,12.40
2018-07-22T16:13:41.949Z,8.23
2018-07-22T16:16:11.190Z,8.07
2018-07-22T16:18:40.730Z,8.07
2018-07-22T16:21:10.362Z,9.10
2018-07-22T16:23:40.822Z,8.27
2018-07-22T16:26:10.797Z,7.60
2018-07-22T16:28:39.946Z,6.80
2018-07-22T16:31:09.125Z,7.80
2018-07-22T16:33:38.333Z,8.30
2018-07-22T16:36:07.510Z,7.83
2018-07-22T16:38:36.636Z,7.10
2018-07-22T16:41:05.790Z,7.33
2018-07-22T16:43:36.040Z,7.50
2018-07-22T16:46:05.210Z,7.90
2018-07-22T16:48:34.370Z,7.70
2018-07-22T16:51:03.915Z,7.67
2018-07-22T16:53:33.115Z,8.67
2018-07-22T16:56:02.309Z,7.33
2018-07-22T16:58:31.496Z,8.60
2018-07-22T17:01:00.843Z,7.90
2018-07-22T17:03:30.072Z,11.60
2018-07-22T17:05:59.267Z,9.70
2018-07-22T17:08:28.465Z,11.47
2018-07-22T17:10:57.632Z,8.03
2018-07-22T17:13:26.814Z,8.27
2018-07-22T17:15:57.717Z,9.20
2018-07-22T17:18:27.402Z,8.27
2018-07-22T17:20:57.110Z,8.57
2018-07-22T17:23:27.475Z,7.80
2018-07-22T17:25:57.129Z,8.47
2018-07-22T17:28:27.310Z,8.80
2018-07-22T17:30:56.546Z,8.10
2018-07-22T17:33:27.312Z,11.30
2018-07-22T17:35:56.819Z,7.90
2018-07-22T17:38:26.050Z,9.07
2018-07-22T17:40:55.167Z,8.00
2018-07-22T17:43:25.415Z,7.90
2018-07-22T17:45:54.573Z,7.27
2018-07-22T17:48:24.708Z,6.70
2018-07-22T17:50:55.573Z,8.60
2018-07-22T17:53:25.874Z,7.63
2018-07-22T17:55:56.425Z,8.77
2018-07-22T17:58:26.814Z,7.80
2018-07-22T18:00:55.942Z,7.77
2018-07-22T18:03:28.910Z,8.53
2018-07-22T18:05:58.331Z,8.07
2018-07-22T18:08:28.599Z,8.90
2018-07-22T18:10:58.830Z,9.50
2018-07-22T18:13:29.532Z,9.27
2018-07-22T18:16:00.394Z,8.20
2018-07-22T18:18:30.185Z,8.70
2018-07-22T18:20:59.528Z,9.53
2018-07-22T18:23:29.048Z,8.30
2018-07-22T18:25:58.238Z,10.73
2018-07-22T18:28:28.414Z,8.87
2018-07-22T18:30:59.038Z,8.77
2018-07-22T18:33:28.971Z,8.30
2018-07-22T18:35:58.202Z,9.80
2018-07-22T18:38:27.358Z,10.40
2018-07-22T18:40:57.075Z,8.80
2018-07-22T18:43:27.710Z,9.57
2018-07-22T18:45:56.913Z,10.13
2018-07-22T18:48:26.136Z,9.60
2018-07-22T18:50:56.043Z,8.80
2018-07-22T18:53:25.324Z,9.87
2018-07-22T18:55:56.167Z,10.27
2018-07-22T18:58:25.606Z,9.37
2018-07-22T19:00:54.980Z,8.97
2018-07-22T19:03:25.737Z,10.63
2018-07-22T19:05:54.978Z,9.70
2018-07-22T19:08:24.163Z,9.30
2018-07-22T19:10:53.410Z,10.57
2018-07-22T19:13:22.546Z,21.67
2018-07-22T19:15:51.780Z,11.67
2018-07-22T19:18:21.028Z,10.23
2018-07-22T19:20:50.186Z,10.40
2018-07-22T19:23:19.551Z,9.47
2018-07-22T19:25:48.756Z,10.30
2018-07-22T19:28:17.951Z,10.83
2018-07-22T19:30:47.326Z,10.90
2018-07-22T19:33:16.488Z,9.07
2018-07-22T19:35:45.683Z,9.90
2018-07-22T19:38:14.897Z,9.73
2018-07-22T19:40:44.112Z,9.70
2018-07-22T19:43:13.105Z,10.40
2018-07-22T19:45:42.310Z,8.53
2018-07-22T19:48:11.906Z,9.30
2018-07-22T19:50:41.043Z,10.10
2018-07-22T19:53:10.233Z,10.47
2018-07-22T19:55:39.548Z,10.07
2018-07-22T19:58:08.717Z,10.13
2018-07-22T20:00:37.940Z,9.97
2018-07-22T20:03:07.483Z,11.43
2018-07-22T20:05:36.939Z,10.33
2018-07-22T20:08:06.338Z,9.27
2018-07-22T20:10:35.490Z,15.43
2018-07-22T20:13:04.674Z,19.53
2018-07-22T20:15:33.834Z,17.63
2018-07-22T20:18:03.044Z,10.77
2018-07-22T20:20:32.167Z,10.53
2018-07-22T20:23:04.583Z,11.50
2018-07-22T20:25:33.719Z,10.50
2018-07-22T20:28:02.997Z,10.57
2018-07-22T20:30:32.810Z,10.57
2018-07-22T20:33:01.979Z,10.13
2018-07-22T20:35:31.147Z,12.53
2018-07-22T20:38:00.899Z,11.23
2018-07-22T20:40:30.142Z,11.87
2018-07-22T20:42:59.304Z,11.20
2018-07-22T20:45:28.480Z,10.53
2018-07-22T20:47:57.782Z,10.43
2018-07-22T20:50:26.986Z,11.27
2018-07-22T20:52:56.279Z,11.90
2018-07-22T20:55:25.545Z,11.80
2018-07-22T20:57:54.788Z,11.23
2018-07-22T21:00:23.930Z,11.50
2018-07-22T21:02:53.622Z,12.97
2018-07-22T21:05:23.707Z,11.53
2018-07-22T21:07:52.901Z,11.90
2018-07-22T21:10:22.056Z,11.03
2018-07-22T21:13:27.482Z,12.27
2018-07-22T21:15:56.762Z,12.13
2018-07-22T21:18:26.609Z,11.77
2018-07-22T21:20:55.802Z,11.50
2018-07-22T21:23:24.927Z,11.60
2018-07-22T21:25:54.061Z,12.50
2018-07-22T21:28:23.213Z,12.60
